createdAt,value
2019-05-23T00:01:20.571Z,19.10
2019-05-23T00:04:03.260Z,19.10
2019-05-23T00:06:33.846Z,19.10
2019-05-23T00:09:08.226Z,19.30
2019-05-23T00:11:40.659Z,19.60
2019-05-23T00:14:34.662Z,19.60
2019-05-23T00:17:17.207Z,19.60
2019-05-23T00:20:03.906Z,19.60
2019-05-23T00:22:36.445Z,19.50
2019-05-23T00:25:08.192Z,19.20
2019-05-23T00:27:38.519Z,19.10
2019-05-23T00:30:13.070Z,19.00
2019-05-23T00:32:44.357Z,18.90
2019-05-23T00:35:17.352Z,18.90
2019-05-23T00:37:47.226Z,18.90
2019-05-23T00:40:38.586Z,18.80
2019-05-23T00:43:10.576Z,18.80
2019-05-23T00:45:47.156Z,18.70
2019-05-23T00:48:19.733Z,18.70
2019-05-23T00:50:53.086Z,18.90
2019-05-23T00:53:24.757Z,18.90
2019-05-23T00:56:04.896Z,19.10
2019-05-23T00:58:37.471Z,19.30
2019-05-23T01:01:09.299Z,19.20
2019-05-23T01:03:49.364Z,19.00
2019-05-23T01:06:16.545Z,18.90
2019-05-23T01:08:47.075Z,19.10
2019-05-23T01:11:18.667Z,19.20
2019-05-23T01:13:49.360Z,19.30
2019-05-23T01:16:28.701Z,19.20
2019-05-23T01:18:59.123Z,19.10
2019-05-23T01:21:47.827Z,18.80
2019-05-23T01:24:24.558Z,18.60
2019-05-23T01:26:55.163Z,18.70
2019-05-23T01:29:37.115Z,18.80
2019-05-23T01:32:01.166Z,19.00
2019-05-23T01:37:25.654Z,18.80
2019-05-23T01:40:02.501Z,18.80
2019-05-23T01:42:42.118Z,18.70
2019-05-23T01:45:24.088Z,18.60
2019-05-23T01:47:57.616Z,18.60
2019-05-23T01:50:33.148Z,18.80
2019-05-23T01:53:10.647Z,18.70
2019-05-23T01:55:54.873Z,18.70
2019-05-23T01:58:36.303Z,18.70
2019-05-23T02:07:11.006Z,18.50
2019-05-23T02:09:49.237Z,18.50
2019-05-23T02:16:00.996Z,18.20
2019-05-23T02:21:13.515Z,18.00
2019-05-23T02:23:58.345Z,18.10
2019-05-23T03:28:46.872Z,17.50
2019-05-23T03:46:17.898Z,17.70
2019-05-23T03:54:48.434Z,17.40
2019-05-23T03:57:26.331Z,17.60
2019-05-23T03:59:59.248Z,17.60
2019-05-23T04:14:25.062Z,17.30
2019-05-23T04:17:24.802Z,17.40
2019-05-23T04:22:54.243Z,16.90
2019-05-23T04:25:25.609Z,16.80
2019-05-23T04:27:56.320Z,16.90
2019-05-23T04:30:25.366Z,16.80
2019-05-23T04:32:54.562Z,16.70
2019-05-23T04:35:24.333Z,16.70
2019-05-23T04:37:55.270Z,16.80
2019-05-23T04:40:24.952Z,16.90
2019-05-23T04:42:54.504Z,17.10
2019-05-23T04:45:27.385Z,17.00
2019-05-23T04:48:15.974Z,16.80
2019-05-23T04:53:44.420Z,16.60
2019-05-23T04:56:13.084Z,16.50
2019-05-23T04:58:49.809Z,16.60
2019-05-23T05:01:29.093Z,16.70
2019-05-23T05:04:20.019Z,16.70
2019-05-23T05:06:49.723Z,16.80
2019-05-23T05:09:25.432Z,16.90
2019-05-23T05:12:04.729Z,17.00
2019-05-23T05:14:39.857Z,17.10
2019-05-23T05:19:59.817Z,17.30
2019-05-23T05:22:31.604Z,17.30
2019-05-23T05:25:24.025Z,17.20
2019-05-23T05:27:44.540Z,17.10
2019-05-23T05:30:30.332Z,17.00
2019-05-23T05:37:02.444Z,17.10
2019-05-23T05:50:55.875Z,17.70
2019-05-23T05:53:40.543Z,17.90
2019-05-23T06:02:26.384Z,18.10
2019-05-23T06:36:57.712Z,19.20
2019-05-23T06:39:24.289Z,19.10
2019-05-23T06:56:07.499Z,19.20
2019-05-23T07:36:06.458Z,19.40
2019-05-23T07:38:37.141Z,19.60
2019-05-23T07:44:24.767Z,19.40
2019-05-23T07:47:04.319Z,19.40
2019-05-23T08:04:59.914Z,19.30
2019-05-23T08:54:23.344Z,20.20
2019-05-23T08:57:22.313Z,20.30
2019-05-23T08:59:58.950Z,20.30
2019-05-23T09:02:28.615Z,20.40
2019-05-23T09:07:58.352Z,20.50
2019-05-23T09:11:55.883Z,20.50
2019-05-23T09:14:12.529Z,20.40
2019-05-23T09:15:59.001Z,20.60
2019-05-23T09:18:51.958Z,20.60
2019-05-23T09:21:15.472Z,20.70
2019-05-23T09:23:50.384Z,20.80
2019-05-23T09:26:27.247Z,21.00
2019-05-23T09:28:58.042Z,21.10
2019-05-23T09:31:27.693Z,21.10
2019-05-23T09:34:24.446Z,21.20
2019-05-23T09:36:48.035Z,21.20
2019-05-23T09:39:18.790Z,21.30
2019-05-23T09:41:49.477Z,21.40
2019-05-23T09:44:18.589Z,21.40
2019-05-23T09:47:00.537Z,21.40
2019-05-23T10:20:17.995Z,23.30
2019-05-23T10:22:49.629Z,23.30
2019-05-23T10:25:18.586Z,23.10
2019-05-23T10:27:47.733Z,23.20
2019-05-23T10:30:17.847Z,23.40
2019-05-23T10:32:48.937Z,23.70
2019-05-23T10:35:18.219Z,23.80
2019-05-23T10:37:47.309Z,24.00
2019-05-23T10:40:36.987Z,24.10
2019-05-23T10:43:09.720Z,24.20
2019-05-23T10:45:53.948Z,23.80
2019-05-23T10:48:23.489Z,23.50
2019-05-23T10:50:52.406Z,23.40
2019-05-23T10:53:21.237Z,23.30
2019-05-23T10:55:50.074Z,23.40
2019-05-23T10:58:19.225Z,23.60
2019-05-23T11:00:48.675Z,23.70
2019-05-23T11:03:17.630Z,23.50
2019-05-23T11:05:46.647Z,23.50
2019-05-23T11:08:15.613Z,23.60
2019-05-23T11:10:44.678Z,23.90
2019-05-23T11:13:13.816Z,24.10
2019-05-23T11:15:42.814Z,24.00
2019-05-23T11:18:11.911Z,24.20
2019-05-23T11:20:41.327Z,24.30
2019-05-23T11:23:11.610Z,24.60
2019-05-23T11:25:44.954Z,24.80
2019-05-23T11:28:19.327Z,24.80
2019-05-23T11:31:14.796Z,24.50
2019-05-23T11:34:04.885Z,24.70
2019-05-23T11:36:37.186Z,25.00
2019-05-23T11:39:09.179Z,25.20
2019-05-23T11:41:38.551Z,25.30
2019-05-23T11:44:10.790Z,25.70
2019-05-23T11:46:50.855Z,25.60
2019-05-23T11:49:29.367Z,25.50
2019-05-23T11:51:59.935Z,25.20
2019-05-23T11:54:30.095Z,25.20
2019-05-23T11:57:00.956Z,25.10
2019-05-23T11:59:50.720Z,24.90
2019-05-23T12:31:32.216Z,24.10
2019-05-23T12:48:39.743Z,25.20
2019-05-23T13:27:43.719Z,26.00
2019-05-23T13:41:06.198Z,25.10
2019-05-23T13:50:10.833Z,24.80
2019-05-23T13:52:41.466Z,25.30
2019-05-23T13:55:15.686Z,25.80
2019-05-23T14:00:42.340Z,25.90
2019-05-23T14:11:37.350Z,25.40
2019-05-23T14:14:15.551Z,25.40
2019-05-23T14:17:13.794Z,25.50
2019-05-23T14:19:42.900Z,25.50
2019-05-23T14:37:22.401Z,25.40
2019-05-23T14:39:56.710Z,25.20
2019-05-23T14:43:15.371Z,25.30
2019-05-23T14:55:50.863Z,25.70
2019-05-23T14:58:49.649Z,25.80
2019-05-23T15:01:49.634Z,25.90
2019-05-23T15:10:17.608Z,25.50
2019-05-23T15:15:38.995Z,25.70
2019-05-23T15:21:18.996Z,25.90
2019-05-23T15:41:39.405Z,25.60
2019-05-23T15:44:27.862Z,25.90
2019-05-23T15:49:37.423Z,25.70
2019-05-23T15:52:31.344Z,25.70
2019-05-23T15:55:16.888Z,25.90
2019-05-23T15:57:59.718Z,25.80
2019-05-23T16:00:43.881Z,25.60
2019-05-23T16:03:33.654Z,25.40
2019-05-23T16:06:04.359Z,25.40
2019-05-23T16:08:33.461Z,25.70
2019-05-23T16:11:03.011Z,26.00
2019-05-23T16:13:32.520Z,26.00
2019-05-23T16:16:04.480Z,25.90
2019-05-23T16:18:35.083Z,26.00
2019-05-23T16:21:04.021Z,26.00
2019-05-23T16:23:34.146Z,26.10
2019-05-23T16:26:03.278Z,26.20
2019-05-23T16:28:32.183Z,26.20
2019-05-23T16:31:01.599Z,26.20
2019-05-23T16:36:48.214Z,25.80
2019-05-23T16:39:21.700Z,26.00
2019-05-23T16:47:38.618Z,25.90
2019-05-23T17:20:47.972Z,24.60
2019-05-23T17:29:39.244Z,24.50
2019-05-23T17:35:02.010Z,24.40
2019-05-23T17:48:54.265Z,24.10
2019-05-23T17:51:25.011Z,24.00
2019-05-23T17:57:19.135Z,23.80
2019-05-23T17:59:52.507Z,23.80
2019-05-23T18:02:23.905Z,23.80
2019-05-23T18:14:08.459Z,23.50
2019-05-23T18:41:03.233Z,23.20
2019-05-23T18:43:42.445Z,23.10
2019-05-23T18:49:51.710Z,23.00
2019-05-23T18:52:21.075Z,23.00
2019-05-23T18:54:50.053Z,22.90
2019-05-23T19:05:31.028Z,22.80
2019-05-23T19:14:26.782Z,22.70
2019-05-23T19:16:58.798Z,22.60
2019-05-23T20:53:05.427Z,22.20
2019-05-23T21:24:16.775Z,22.10
2019-05-23T21:26:45.564Z,22.00
2019-05-23T21:29:14.480Z,21.80
2019-05-23T21:31:43.434Z,21.80
2019-05-23T21:34:12.433Z,21.90
2019-05-23T21:36:41.422Z,21.90
2019-05-23T21:39:12.091Z,21.90
2019-05-23T21:41:43.034Z,21.90
2019-05-23T21:44:11.881Z,22.00
2019-05-23T21:46:40.799Z,22.10
2019-05-23T21:49:09.958Z,21.90
2019-05-23T21:51:38.992Z,21.80
2019-05-23T21:54:07.837Z,21.60
2019-05-23T21:56:38.688Z,21.60
2019-05-23T21:59:07.634Z,21.70
2019-05-23T22:01:38.168Z,21.60
2019-05-23T22:04:21.600Z,21.60
2019-05-23T22:06:57.694Z,21.60
2019-05-23T22:09:26.719Z,21.50
2019-05-23T22:11:55.629Z,21.50
2019-05-23T22:14:24.727Z,21.40
2019-05-23T22:16:53.670Z,21.30
2019-05-23T22:19:23.795Z,21.30
2019-05-23T22:21:53.329Z,21.40
2019-05-23T22:24:22.253Z,21.50
2019-05-23T22:26:51.193Z,21.60
2019-05-23T22:29:20.213Z,21.50
2019-05-23T22:31:49.143Z,21.40
2019-05-23T22:34:19.954Z,21.40
2019-05-23T22:36:48.903Z,21.20
2019-05-23T22:39:18.282Z,21.20
2019-05-23T22:41:47.127Z,21.20
2019-05-23T22:44:16.026Z,21.30
2019-05-23T22:46:45.128Z,21.30
2019-05-23T22:49:14.060Z,21.30
2019-05-23T22:51:43.060Z,21.20
2019-05-23T22:54:11.888Z,21.20
2019-05-23T22:56:40.810Z,21.10
2019-05-23T22:59:09.820Z,21.20
2019-05-23T23:01:38.727Z,21.10
2019-05-23T23:04:08.148Z,21.00
2019-05-23T23:06:36.989Z,21.00
2019-05-23T23:09:07.440Z,20.90
2019-05-23T23:11:36.282Z,20.90
2019-05-23T23:14:05.625Z,20.90
2019-05-23T23:16:34.533Z,20.90
2019-05-23T23:19:03.642Z,20.90
2019-05-23T23:21:32.636Z,21.00
2019-05-23T23:24:01.564Z,21.00
2019-05-23T23:26:30.402Z,21.10
2019-05-23T23:28:59.232Z,21.00
2019-05-23T23:31:28.154Z,21.00
2019-05-23T23:33:56.978Z,21.00
2019-05-23T23:36:25.901Z,20.90
2019-05-23T23:38:54.720Z,20.90
2019-05-23T23:41:23.566Z,20.90
2019-05-23T23:43:59.258Z,20.90
2019-05-23T23:46:40.823Z,20.90
2019-05-23T23:49:27.335Z,20.90
2019-05-23T23:52:13.938Z,21.00
2019-05-23T23:55:00.390Z,21.00
2019-05-23T23:57:46.864Z,21.00
